sensor_id;sensor_type;location;lat;lon;timestamp;temperature;humidity
45008;DHT22;30743;52.008;5.644;2022-12-07T00:01:38;10.20;99.90
45008;DHT22;30743;52.008;5.644;2022-12-07T00:04:05;10.20;99.90
45008;DHT22;30743;52.008;5.644;2022-12-07T00:06:35;10.10;99.90
45008;DHT22;30743;52.008;5.644;2022-12-07T00:09:02;10.10;99.90
45008;DHT22;30743;52.008;5.644;2022-12-07T00:11:28;10.10;99.90
45008;DHT22;30743;52.008;5.644;2022-12-07T00:13:55;10.10;99.90
45008;DHT22;30743;52.008;5.644;2022-12-07T00:16:23;10.00;99.90
45008;DHT22;30743;52.008;5.644;2022-12-07T00:18:49;10.00;99.90
45008;DHT22;30743;52.008;5.644;2022-12-07T00:21:18;9.90;99.90
45008;DHT22;30743;52.008;5.644;2022-12-07T00:23:44;9.90;99.90
45008;DHT22;30743;52.008;5.644;2022-12-07T00:26:16;9.80;99.90
45008;DHT22;30743;52.008;5.644;2022-12-07T00:28:48;9.80;99.90
45008;DHT22;30743;52.008;5.644;2022-12-07T00:31:15;9.60;99.90
45008;DHT22;30743;52.008;5.644;2022-12-07T00:33:41;9.60;99.90
45008;DHT22;30743;52.008;5.644;2022-12-07T00:36:10;9.60;99.90
45008;DHT22;30743;52.008;5.644;2022-12-07T00:38:36;9.60;99.90
45008;DHT22;30743;52.008;5.644;2022-12-07T00:41:05;9.60;99.90
45008;DHT22;30743;52.008;5.644;2022-12-07T00:43:33;9.60;99.90
45008;DHT22;30743;52.008;5.644;2022-12-07T00:45:58;9.50;99.90
45008;DHT22;30743;52.008;5.644;2022-12-07T00:48:24;9.50;99.90
45008;DHT22;30743;52.008;5.644;2022-12-07T00:50:50;9.50;99.90
45008;DHT22;30743;52.008;5.644;2022-12-07T00:53:16;9.40;99.90
45008;DHT22;30743;52.008;5.644;2022-12-07T00:55:43;9.40;99.90
45008;DHT22;30743;52.008;5.644;2022-12-07T00:58:09;9.30;99.90
45008;DHT22;30743;52.008;5.644;2022-12-07T01:00:39;9.30;99.90
45008;DHT22;30743;52.008;5.644;2022-12-07T01:03:10;9.10;99.90
45008;DHT22;30743;52.008;5.644;2022-12-07T01:05:36;9.10;99.90
45008;DHT22;30743;52.008;5.644;2022-12-07T01:08:02;9.10;99.90
45008;DHT22;30743;52.008;5.644;2022-12-07T01:10:28;9.10;99.90
45008;DHT22;30743;52.008;5.644;2022-12-07T01:12:55;9.10;99.90
45008;DHT22;30743;52.008;5.644;2022-12-07T01:15:21;9.10;99.90
45008;DHT22;30743;52.008;5.644;2022-12-07T01:17:46;9.00;99.90
45008;DHT22;30743;52.008;5.644;2022-12-07T01:20:12;9.00;99.90
45008;DHT22;30743;52.008;5.644;2022-12-07T01:22:40;8.90;99.90
45008;DHT22;30743;52.008;5.644;2022-12-07T01:25:07;8.90;99.90
45008;DHT22;30743;52.008;5.644;2022-12-07T01:27:34;8.90;99.90
45008;DHT22;30743;52.008;5.644;2022-12-07T01:30:00;8.90;99.90
45008;DHT22;30743;52.008;5.644;2022-12-07T01:32:26;8.80;99.90
45008;DHT22;30743;52.008;5.644;2022-12-07T01:34:52;8.80;99.90
45008;DHT22;30743;52.008;5.644;2022-12-07T01:37:17;8.80;99.90
45008;DHT22;30743;52.008;5.644;2022-12-07T01:39:43;8.80;99.90
45008;DHT22;30743;52.008;5.644;2022-12-07T01:42:12;8.70;99.90
45008;DHT22;30743;52.008;5.644;2022-12-07T01:47:41;8.70;99.90
45008;DHT22;30743;52.008;5.644;2022-12-07T01:50:09;8.60;99.90
45008;DHT22;30743;52.008;5.644;2022-12-07T01:52:37;8.60;99.90
45008;DHT22;30743;52.008;5.644;2022-12-07T01:55:08;8.60;99.90
45008;DHT22;30743;52.008;5.644;2022-12-07T01:57:37;8.60;99.90
45008;DHT22;30743;52.008;5.644;2022-12-07T02:00:05;8.50;99.90
45008;DHT22;30743;52.008;5.644;2022-12-07T02:02:35;8.50;99.90
45008;DHT22;30743;52.008;5.644;2022-12-07T02:05:04;8.50;99.90
45008;DHT22;30743;52.008;5.644;2022-12-07T02:07:31;8.40;99.90
45008;DHT22;30743;52.008;5.644;2022-12-07T02:10:15;8.40;99.90
45008;DHT22;30743;52.008;5.644;2022-12-07T02:12:44;8.40;99.90
45008;DHT22;30743;52.008;5.644;2022-12-07T02:15:10;8.40;99.90
45008;DHT22;30743;52.008;5.644;2022-12-07T02:17:54;8.40;99.90
45008;DHT22;30743;52.008;5.644;2022-12-07T02:20:31;8.40;99.90
45008;DHT22;30743;52.008;5.644;2022-12-07T02:31:38;8.40;99.90
45008;DHT22;30743;52.008;5.644;2022-12-07T02:37:01;8.40;99.90
45008;DHT22;30743;52.008;5.644;2022-12-07T02:39:37;8.40;99.90
45008;DHT22;30743;52.008;5.644;2022-12-07T02:42:12;8.50;99.90
45008;DHT22;30743;52.008;5.644;2022-12-07T02:44:39;8.50;99.90
45008;DHT22;30743;52.008;5.644;2022-12-07T02:47:09;8.50;99.90
45008;DHT22;30743;52.008;5.644;2022-12-07T02:49:37;8.50;99.90
45008;DHT22;30743;52.008;5.644;2022-12-07T02:52:03;8.50;99.90
45008;DHT22;30743;52.008;5.644;2022-12-07T02:54:29;8.60;99.90
45008;DHT22;30743;52.008;5.644;2022-12-07T02:57:12;8.60;99.90
45008;DHT22;30743;52.008;5.644;2022-12-07T03:03:03;8.70;99.90
45008;DHT22;30743;52.008;5.644;2022-12-07T03:05:19;8.80;99.90
45008;DHT22;30743;52.008;5.644;2022-12-07T03:07:51;8.80;99.90
45008;DHT22;30743;52.008;5.644;2022-12-07T03:10:39;8.80;99.90
45008;DHT22;30743;52.008;5.644;2022-12-07T03:13:20;9.10;99.90
45008;DHT22;30743;52.008;5.644;2022-12-07T03:18:20;9.10;99.90
45008;DHT22;30743;52.008;5.644;2022-12-07T03:20:48;9.20;99.90
45008;DHT22;30743;52.008;5.644;2022-12-07T03:23:16;9.30;99.90
45008;DHT22;30743;52.008;5.644;2022-12-07T03:25:47;9.30;99.90
45008;DHT22;30743;52.008;5.644;2022-12-07T03:28:17;9.40;99.90
45008;DHT22;30743;52.008;5.644;2022-12-07T03:30:50;9.40;99.90
45008;DHT22;30743;52.008;5.644;2022-12-07T03:33:31;9.40;99.90
45008;DHT22;30743;52.008;5.644;2022-12-07T03:36:06;9.40;99.90
45008;DHT22;30743;52.008;5.644;2022-12-07T03:39:02;9.50;99.90
45008;DHT22;30743;52.008;5.644;2022-12-07T03:41:34;9.50;99.90
45008;DHT22;30743;52.008;5.644;2022-12-07T03:44:02;9.60;99.90
45008;DHT22;30743;52.008;5.644;2022-12-07T03:46:50;9.60;99.90
45008;DHT22;30743;52.008;5.644;2022-12-07T03:52:16;9.60;99.90
45008;DHT22;30743;52.008;5.644;2022-12-07T03:54:49;9.70;99.90
45008;DHT22;30743;52.008;5.644;2022-12-07T03:57:18;9.70;99.90
45008;DHT22;30743;52.008;5.644;2022-12-07T03:59:44;9.70;99.90
45008;DHT22;30743;52.008;5.644;2022-12-07T04:02:12;9.70;99.90
45008;DHT22;30743;52.008;5.644;2022-12-07T04:04:38;9.60;99.90
45008;DHT22;30743;52.008;5.644;2022-12-07T04:07:04;9.50;99.90
45008;DHT22;30743;52.008;5.644;2022-12-07T04:09:30;9.40;99.90
45008;DHT22;30743;52.008;5.644;2022-12-07T04:11:55;9.50;99.90
45008;DHT22;30743;52.008;5.644;2022-12-07T04:14:21;9.50;99.90
45008;DHT22;30743;52.008;5.644;2022-12-07T04:16:51;9.40;99.90
45008;DHT22;30743;52.008;5.644;2022-12-07T04:19:19;9.30;99.90
45008;DHT22;30743;52.008;5.644;2022-12-07T04:21:46;9.10;99.90
45008;DHT22;30743;52.008;5.644;2022-12-07T04:24:13;9.10;99.90
45008;DHT22;30743;52.008;5.644;2022-12-07T04:26:38;9.00;99.90
45008;DHT22;30743;52.008;5.644;2022-12-07T04:29:04;8.90;99.90
45008;DHT22;30743;52.008;5.644;2022-12-07T04:31:30;9.00;99.90
45008;DHT22;30743;52.008;5.644;2022-12-07T04:33:55;9.00;99.90
45008;DHT22;30743;52.008;5.644;2022-12-07T04:36:21;9.00;99.90
45008;DHT22;30743;52.008;5.644;2022-12-07T04:38:47;9.00;99.90
45008;DHT22;30743;52.008;5.644;2022-12-07T04:41:13;9.00;99.90
45008;DHT22;30743;52.008;5.644;2022-12-07T04:43:38;9.10;99.90
45008;DHT22;30743;52.008;5.644;2022-12-07T04:46:04;9.10;99.90
45008;DHT22;30743;52.008;5.644;2022-12-07T04:48:30;9.10;99.90
45008;DHT22;30743;52.008;5.644;2022-12-07T04:50:55;9.10;99.90
45008;DHT22;30743;52.008;5.644;2022-12-07T04:53:21;9.10;99.90
45008;DHT22;30743;52.008;5.644;2022-12-07T04:55:47;9.10;99.90
45008;DHT22;30743;52.008;5.644;2022-12-07T04:58:12;9.20;99.90
45008;DHT22;30743;52.008;5.644;2022-12-07T05:00:39;9.20;99.90
45008;DHT22;30743;52.008;5.644;2022-12-07T05:03:04;9.20;99.90
45008;DHT22;30743;52.008;5.644;2022-12-07T05:05:30;9.20;99.90
45008;DHT22;30743;52.008;5.644;2022-12-07T05:07:55;9.20;99.90
45008;DHT22;30743;52.008;5.644;2022-12-07T05:10:21;9.20;99.90
45008;DHT22;30743;52.008;5.644;2022-12-07T05:12:46;9.20;99.90
45008;DHT22;30743;52.008;5.644;2022-12-07T05:15:13;9.30;99.90
45008;DHT22;30743;52.008;5.644;2022-12-07T05:17:39;9.30;99.90
45008;DHT22;30743;52.008;5.644;2022-12-07T05:20:05;9.30;99.90
45008;DHT22;30743;52.008;5.644;2022-12-07T05:22:31;9.30;99.90
45008;DHT22;30743;52.008;5.644;2022-12-07T05:24:56;9.30;99.90
45008;DHT22;30743;52.008;5.644;2022-12-07T05:27:22;9.40;99.90
45008;DHT22;30743;52.008;5.644;2022-12-07T05:29:49;9.40;99.90
45008;DHT22;30743;52.008;5.644;2022-12-07T05:32:15;9.40;99.90
45008;DHT22;30743;52.008;5.644;2022-12-07T05:34:41;9.40;99.90
45008;DHT22;30743;52.008;5.644;2022-12-07T05:37:06;9.30;99.90
45008;DHT22;30743;52.008;5.644;2022-12-07T05:39:31;9.30;99.90
45008;DHT22;30743;52.008;5.644;2022-12-07T05:41:57;9.30;99.90
45008;DHT22;30743;52.008;5.644;2022-12-07T05:44:39;9.30;99.90
45008;DHT22;30743;52.008;5.644;2022-12-07T05:47:04;9.30;99.90
45008;DHT22;30743;52.008;5.644;2022-12-07T05:49:30;9.20;99.90
45008;DHT22;30743;52.008;5.644;2022-12-07T05:51:56;9.20;99.90
45008;DHT22;30743;52.008;5.644;2022-12-07T05:54:21;9.20;99.90
45008;DHT22;30743;52.008;5.644;2022-12-07T05:56:47;9.20;99.90
45008;DHT22;30743;52.008;5.644;2022-12-07T05:59:12;9.10;99.90
45008;DHT22;30743;52.008;5.644;2022-12-07T06:02:03;9.10;99.90
45008;DHT22;30743;52.008;5.644;2022-12-07T06:04:35;9.10;99.90
45008;DHT22;30743;52.008;5.644;2022-12-07T06:07:00;9.10;99.90
45008;DHT22;30743;52.008;5.644;2022-12-07T06:09:27;9.10;99.90
45008;DHT22;30743;52.008;5.644;2022-12-07T06:11:53;9.10;99.90
45008;DHT22;30743;52.008;5.644;2022-12-07T06:14:38;9.10;99.90
45008;DHT22;30743;52.008;5.644;2022-12-07T06:17:03;9.00;99.90
45008;DHT22;30743;52.008;5.644;2022-12-07T06:19:29;9.00;99.90
45008;DHT22;30743;52.008;5.644;2022-12-07T06:21:56;9.00;99.90
45008;DHT22;30743;52.008;5.644;2022-12-07T06:24:22;9.00;99.90
45008;DHT22;30743;52.008;5.644;2022-12-07T06:26:47;9.00;99.90
45008;DHT22;30743;52.008;5.644;2022-12-07T06:29:13;9.00;99.90
45008;DHT22;30743;52.008;5.644;2022-12-07T06:31:39;9.00;99.90
45008;DHT22;30743;52.008;5.644;2022-12-07T06:34:08;9.00;99.90
45008;DHT22;30743;52.008;5.644;2022-12-07T06:36:34;9.00;99.90
45008;DHT22;30743;52.008;5.644;2022-12-07T06:39:00;9.00;99.90
45008;DHT22;30743;52.008;5.644;2022-12-07T06:41:26;9.00;99.90
45008;DHT22;30743;52.008;5.644;2022-12-07T06:43:51;9.30;99.90
45008;DHT22;30743;52.008;5.644;2022-12-07T06:46:17;9.00;99.90
45008;DHT22;30743;52.008;5.644;2022-12-07T06:48:43;9.00;99.90
45008;DHT22;30743;52.008;5.644;2022-12-07T06:51:09;9.00;99.90
45008;DHT22;30743;52.008;5.644;2022-12-07T06:53:35;8.90;99.90
45008;DHT22;30743;52.008;5.644;2022-12-07T06:56:01;8.70;99.90
45008;DHT22;30743;52.008;5.644;2022-12-07T06:58:27;8.70;99.90
45008;DHT22;30743;52.008;5.644;2022-12-07T07:00:53;8.70;99.90
45008;DHT22;30743;52.008;5.644;2022-12-07T07:03:18;8.60;99.90
45008;DHT22;30743;52.008;5.644;2022-12-07T07:05:44;8.70;99.90
45008;DHT22;30743;52.008;5.644;2022-12-07T07:08:10;8.80;99.90
45008;DHT22;30743;52.008;5.644;2022-12-07T07:10:36;8.90;99.90
45008;DHT22;30743;52.008;5.644;2022-12-07T07:13:01;8.90;99.90
45008;DHT22;30743;52.008;5.644;2022-12-07T07:15:27;8.90;99.90
45008;DHT22;30743;52.008;5.644;2022-12-07T07:17:53;8.90;99.90
45008;DHT22;30743;52.008;5.644;2022-12-07T07:20:18;9.10;99.90
45008;DHT22;30743;52.008;5.644;2022-12-07T07:22:44;9.10;99.90
45008;DHT22;30743;52.008;5.644;2022-12-07T07:25:09;9.20;99.90
45008;DHT22;30743;52.008;5.644;2022-12-07T07:27:35;9.20;99.90
45008;DHT22;30743;52.008;5.644;2022-12-07T07:30:00;9.20;99.90
45008;DHT22;30743;52.008;5.644;2022-12-07T07:32:26;9.20;99.90
45008;DHT22;30743;52.008;5.644;2022-12-07T07:34:52;9.20;99.90
45008;DHT22;30743;52.008;5.644;2022-12-07T07:37:18;9.20;99.90
45008;DHT22;30743;52.008;5.644;2022-12-07T07:39:43;9.20;99.90
45008;DHT22;30743;52.008;5.644;2022-12-07T07:42:09;9.20;99.90
45008;DHT22;30743;52.008;5.644;2022-12-07T07:44:34;9.20;99.90
45008;DHT22;30743;52.008;5.644;2022-12-07T07:47:00;9.20;99.90
45008;DHT22;30743;52.008;5.644;2022-12-07T07:49:26;9.10;99.90
45008;DHT22;30743;52.008;5.644;2022-12-07T07:51:52;9.10;99.90
45008;DHT22;30743;52.008;5.644;2022-12-07T07:54:17;9.10;99.90
45008;DHT22;30743;52.008;5.644;2022-12-07T07:56:43;9.10;99.90
45008;DHT22;30743;52.008;5.644;2022-12-07T07:59:08;9.10;99.90
45008;DHT22;30743;52.008;5.644;2022-12-07T08:01:34;9.10;99.90
45008;DHT22;30743;52.008;5.644;2022-12-07T08:03:59;9.20;99.90
45008;DHT22;30743;52.008;5.644;2022-12-07T08:06:25;9.20;99.90
45008;DHT22;30743;52.008;5.644;2022-12-07T08:08:51;9.20;99.90
45008;DHT22;30743;52.008;5.644;2022-12-07T08:11:17;9.20;99.90
45008;DHT22;30743;52.008;5.644;2022-12-07T08:13:45;9.40;99.90
45008;DHT22;30743;52.008;5.644;2022-12-07T08:16:12;9.50;99.90
45008;DHT22;30743;52.008;5.644;2022-12-07T08:18:39;9.50;99.90
45008;DHT22;30743;52.008;5.644;2022-12-07T08:21:05;9.60;99.90
45008;DHT22;30743;52.008;5.644;2022-12-07T08:23:32;9.70;99.90
45008;DHT22;30743;52.008;5.644;2022-12-07T08:26:01;9.80;99.90
45008;DHT22;30743;52.008;5.644;2022-12-07T08:28:28;10.00;99.90
45008;DHT22;30743;52.008;5.644;2022-12-07T08:31:02;10.20;99.90
45008;DHT22;30743;52.008;5.644;2022-12-07T08:33:28;10.30;99.90
45008;DHT22;30743;52.008;5.644;2022-12-07T08:35:53;10.40;99.90
45008;DHT22;30743;52.008;5.644;2022-12-07T08:38:19;10.60;99.90
45008;DHT22;30743;52.008;5.644;2022-12-07T08:40:45;10.70;99.90
45008;DHT22;30743;52.008;5.644;2022-12-07T08:43:10;10.80;99.90
45008;DHT22;30743;52.008;5.644;2022-12-07T08:45:36;10.50;99.90
45008;DHT22;30743;52.008;5.644;2022-12-07T08:48:05;10.50;99.90
45008;DHT22;30743;52.008;5.644;2022-12-07T08:50:32;10.50;99.90
45008;DHT22;30743;52.008;5.644;2022-12-07T08:52:59;10.60;99.90
45008;DHT22;30743;52.008;5.644;2022-12-07T08:55:25;10.70;99.90
45008;DHT22;30743;52.008;5.644;2022-12-07T08:57:52;10.80;99.90
45008;DHT22;30743;52.008;5.644;2022-12-07T09:00:18;11.00;99.90
45008;DHT22;30743;52.008;5.644;2022-12-07T09:02:45;11.20;99.90
45008;DHT22;30743;52.008;5.644;2022-12-07T09:05:11;11.60;99.90
45008;DHT22;30743;52.008;5.644;2022-12-07T09:07:36;12.00;99.90
45008;DHT22;30743;52.008;5.644;2022-12-07T09:10:03;12.60;99.90
45008;DHT22;30743;52.008;5.644;2022-12-07T09:12:29;13.20;99.90
45008;DHT22;30743;52.008;5.644;2022-12-07T09:14:54;13.90;99.90
45008;DHT22;30743;52.008;5.644;2022-12-07T09:17:20;14.80;99.90
45008;DHT22;30743;52.008;5.644;2022-12-07T09:19:45;15.60;99.90
45008;DHT22;30743;52.008;5.644;2022-12-07T09:22:11;16.10;99.90
45008;DHT22;30743;52.008;5.644;2022-12-07T09:24:36;16.60;99.90
45008;DHT22;30743;52.008;5.644;2022-12-07T09:27:02;16.60;99.90
45008;DHT22;30743;52.008;5.644;2022-12-07T09:29:27;16.70;99.90
45008;DHT22;30743;52.008;5.644;2022-12-07T09:31:53;16.70;99.90
45008;DHT22;30743;52.008;5.644;2022-12-07T09:34:18;16.90;99.90
45008;DHT22;30743;52.008;5.644;2022-12-07T09:36:44;17.40;99.90
45008;DHT22;30743;52.008;5.644;2022-12-07T09:39:10;18.30;99.90
45008;DHT22;30743;52.008;5.644;2022-12-07T09:41:39;19.40;99.90
45008;DHT22;30743;52.008;5.644;2022-12-07T09:44:09;20.60;99.20
45008;DHT22;30743;52.008;5.644;2022-12-07T09:46:37;21.70;97.40
45008;DHT22;30743;52.008;5.644;2022-12-07T09:49:04;22.70;94.80
45008;DHT22;30743;52.008;5.644;2022-12-07T09:51:30;22.90;93.10
45008;DHT22;30743;52.008;5.644;2022-12-07T09:53:57;23.10;92.90
45008;DHT22;30743;52.008;5.644;2022-12-07T09:56:24;23.50;92.90
45008;DHT22;30743;52.008;5.644;2022-12-07T09:58:55;23.60;91.30
45008;DHT22;30743;52.008;5.644;2022-12-07T10:01:23;23.20;90.00
45008;DHT22;30743;52.008;5.644;2022-12-07T10:03:54;22.60;89.60
45008;DHT22;30743;52.008;5.644;2022-12-07T10:06:20;21.80;90.40
45008;DHT22;30743;52.008;5.644;2022-12-07T10:08:46;21.00;90.60
45008;DHT22;30743;52.008;5.644;2022-12-07T10:11:12;20.00;91.90
45008;DHT22;30743;52.008;5.644;2022-12-07T10:13:51;19.30;92.50
45008;DHT22;30743;52.008;5.644;2022-12-07T10:18:51;18.10;93.70
45008;DHT22;30743;52.008;5.644;2022-12-07T10:21:22;17.60;94.50
45008;DHT22;30743;52.008;5.644;2022-12-07T10:24:05;17.20;95.30
45008;DHT22;30743;52.008;5.644;2022-12-07T10:34:41;16.30;97.30
45008;DHT22;30743;52.008;5.644;2022-12-07T10:37:27;16.20;97.60
45008;DHT22;30743;52.008;5.644;2022-12-07T10:39:55;16.80;98.70
45008;DHT22;30743;52.008;5.644;2022-12-07T10:42:29;17.50;97.20
45008;DHT22;30743;52.008;5.644;2022-12-07T11:06:41;20.40;91.90
45008;DHT22;30743;52.008;5.644;2022-12-07T11:18:49;21.20;92.40
45008;DHT22;30743;52.008;5.644;2022-12-07T11:21:41;22.60;91.90
45008;DHT22;30743;52.008;5.644;2022-12-07T11:24:18;24.00;90.00
45008;DHT22;30743;52.008;5.644;2022-12-07T11:27:06;25.10;86.90
45008;DHT22;30743;52.008;5.644;2022-12-07T11:30:06;25.70;84.20
45008;DHT22;30743;52.008;5.644;2022-12-07T11:38:48;23.20;82.10
45008;DHT22;30743;52.008;5.644;2022-12-07T11:41:38;21.90;85.00
45008;DHT22;30743;52.008;5.644;2022-12-07T11:49:40;20.20;90.40
45008;DHT22;30743;52.008;5.644;2022-12-07T11:52:13;20.10;91.20
45008;DHT22;30743;52.008;5.644;2022-12-07T11:54:44;20.00;90.20
45008;DHT22;30743;52.008;5.644;2022-12-07T11:57:20;19.80;90.80
45008;DHT22;30743;52.008;5.644;2022-12-07T11:59:57;19.50;90.80
45008;DHT22;30743;52.008;5.644;2022-12-07T12:02:33;19.30;91.20
45008;DHT22;30743;52.008;5.644;2022-12-07T12:05:27;19.50;91.60
45008;DHT22;30743;52.008;5.644;2022-12-07T12:08:16;19.90;91.80
45008;DHT22;30743;52.008;5.644;2022-12-07T12:10:58;20.10;91.10
45008;DHT22;30743;52.008;5.644;2022-12-07T12:13:29;20.30;90.70
45008;DHT22;30743;52.008;5.644;2022-12-07T12:16:32;20.40;90.30
45008;DHT22;30743;52.008;5.644;2022-12-07T12:19:12;20.20;90.80
45008;DHT22;30743;52.008;5.644;2022-12-07T12:21:41;20.70;90.90
45008;DHT22;30743;52.008;5.644;2022-12-07T12:24:18;21.30;90.70
45008;DHT22;30743;52.008;5.644;2022-12-07T12:27:01;21.60;89.10
45008;DHT22;30743;52.008;5.644;2022-12-07T12:29:37;21.80;88.80
45008;DHT22;30743;52.008;5.644;2022-12-07T12:32:20;21.40;88.30
45008;DHT22;30743;52.008;5.644;2022-12-07T12:42:54;24.70;84.50
45008;DHT22;30743;52.008;5.644;2022-12-07T12:45:24;25.20;82.10
45008;DHT22;30743;52.008;5.644;2022-12-07T12:48:01;25.50;80.60
45008;DHT22;30743;52.008;5.644;2022-12-07T12:53:16;24.70;79.30
45008;DHT22;30743;52.008;5.644;2022-12-07T12:56:00;23.80;80.00
45008;DHT22;30743;52.008;5.644;2022-12-07T12:58:33;23.50;81.90
45008;DHT22;30743;52.008;5.644;2022-12-07T13:04:01;23.90;82.30
45008;DHT22;30743;52.008;5.644;2022-12-07T13:08:55;24.40;80.80
45008;DHT22;30743;52.008;5.644;2022-12-07T13:11:40;24.80;80.20
45008;DHT22;30743;52.008;5.644;2022-12-07T13:14:43;25.30;80.80
45008;DHT22;30743;52.008;5.644;2022-12-07T13:19:58;27.00;78.50
45008;DHT22;30743;52.008;5.644;2022-12-07T13:27:37;26.60;73.30
45008;DHT22;30743;52.008;5.644;2022-12-07T13:30:16;25.60;73.70
45008;DHT22;30743;52.008;5.644;2022-12-07T13:32:43;24.90;76.80
45008;DHT22;30743;52.008;5.644;2022-12-07T13:35:36;24.90;77.50
45008;DHT22;30743;52.008;5.644;2022-12-07T13:38:24;25.40;77.60
45008;DHT22;30743;52.008;5.644;2022-12-07T13:41:16;25.30;76.30
45008;DHT22;30743;52.008;5.644;2022-12-07T13:43:48;25.40;77.50
45008;DHT22;30743;52.008;5.644;2022-12-07T13:46:14;25.10;78.30
45008;DHT22;30743;52.008;5.644;2022-12-07T13:48:46;24.90;77.20
45008;DHT22;30743;52.008;5.644;2022-12-07T13:51:26;23.80;76.60
45008;DHT22;30743;52.008;5.644;2022-12-07T13:53:54;22.80;78.40
45008;DHT22;30743;52.008;5.644;2022-12-07T13:56:28;21.10;81.00
45008;DHT22;30743;52.008;5.644;2022-12-07T13:58:56;20.10;84.50
45008;DHT22;30743;52.008;5.644;2022-12-07T14:01:22;19.10;87.60
45008;DHT22;30743;52.008;5.644;2022-12-07T14:03:49;18.20;86.60
45008;DHT22;30743;52.008;5.644;2022-12-07T14:06:24;17.70;89.20
45008;DHT22;30743;52.008;5.644;2022-12-07T14:09:17;17.30;90.00
45008;DHT22;30743;52.008;5.644;2022-12-07T14:11:43;17.00;90.40
45008;DHT22;30743;52.008;5.644;2022-12-07T14:14:36;16.70;90.80
45008;DHT22;30743;52.008;5.644;2022-12-07T14:17:19;16.60;90.80
45008;DHT22;30743;52.008;5.644;2022-12-07T14:22:31;16.40;91.50
45008;DHT22;30743;52.008;5.644;2022-12-07T14:25:01;16.40;91.80
45008;DHT22;30743;52.008;5.644;2022-12-07T14:27:32;16.50;92.00
45008;DHT22;30743;52.008;5.644;2022-12-07T14:30:00;16.70;91.90
45008;DHT22;30743;52.008;5.644;2022-12-07T14:32:28;16.70;91.60
45008;DHT22;30743;52.008;5.644;2022-12-07T14:35:11;16.70;91.30
45008;DHT22;30743;52.008;5.644;2022-12-07T14:37:38;16.60;91.20
45008;DHT22;30743;52.008;5.644;2022-12-07T14:40:04;16.50;91.70
45008;DHT22;30743;52.008;5.644;2022-12-07T14:42:30;16.30;91.90
45008;DHT22;30743;52.008;5.644;2022-12-07T14:44:57;16.10;92.10
45008;DHT22;30743;52.008;5.644;2022-12-07T14:47:24;16.00;92.40
45008;DHT22;30743;52.008;5.644;2022-12-07T14:49:50;15.80;92.70
45008;DHT22;30743;52.008;5.644;2022-12-07T14:52:24;15.60;93.20
45008;DHT22;30743;52.008;5.644;2022-12-07T14:54:51;15.40;93.60
45008;DHT22;30743;52.008;5.644;2022-12-07T14:57:17;15.10;94.20
45008;DHT22;30743;52.008;5.644;2022-12-07T14:59:42;14.80;95.00
45008;DHT22;30743;52.008;5.644;2022-12-07T15:02:11;14.60;95.40
45008;DHT22;30743;52.008;5.644;2022-12-07T15:04:37;14.00;96.30
45008;DHT22;30743;52.008;5.644;2022-12-07T15:07:04;13.60;96.90
45008;DHT22;30743;52.008;5.644;2022-12-07T15:09:30;13.50;97.40
45008;DHT22;30743;52.008;5.644;2022-12-07T15:11:56;13.50;97.60
45008;DHT22;30743;52.008;5.644;2022-12-07T15:14:21;13.50;98.10
45008;DHT22;30743;52.008;5.644;2022-12-07T15:16:47;13.30;97.90
45008;DHT22;30743;52.008;5.644;2022-12-07T15:19:18;13.30;98.10
45008;DHT22;30743;52.008;5.644;2022-12-07T15:21:45;13.20;98.30
45008;DHT22;30743;52.008;5.644;2022-12-07T15:24:11;13.10;98.40
45008;DHT22;30743;52.008;5.644;2022-12-07T15:26:37;13.00;98.50
45008;DHT22;30743;52.008;5.644;2022-12-07T15:29:03;12.90;98.70
45008;DHT22;30743;52.008;5.644;2022-12-07T15:31:28;13.00;98.70
45008;DHT22;30743;52.008;5.644;2022-12-07T15:33:54;12.90;98.80
45008;DHT22;30743;52.008;5.644;2022-12-07T15:36:23;12.80;98.90
45008;DHT22;30743;52.008;5.644;2022-12-07T15:38:48;12.70;99.00
45008;DHT22;30743;52.008;5.644;2022-12-07T15:41:14;12.70;99.10
45008;DHT22;30743;52.008;5.644;2022-12-07T15:43:40;12.70;99.00
45008;DHT22;30743;52.008;5.644;2022-12-07T15:46:32;12.60;99.00
45008;DHT22;30743;52.008;5.644;2022-12-07T15:48:58;12.60;99.00
45008;DHT22;30743;52.008;5.644;2022-12-07T15:51:24;12.60;99.10
45008;DHT22;30743;52.008;5.644;2022-12-07T15:53:50;12.60;99.50
45008;DHT22;30743;52.008;5.644;2022-12-07T15:56:16;12.60;99.80
45008;DHT22;30743;52.008;5.644;2022-12-07T15:58:41;12.70;99.70
45008;DHT22;30743;52.008;5.644;2022-12-07T16:01:11;12.60;99.40
45008;DHT22;30743;52.008;5.644;2022-12-07T16:03:37;12.60;99.50
45008;DHT22;30743;52.008;5.644;2022-12-07T16:06:03;12.60;99.40
45008;DHT22;30743;52.008;5.644;2022-12-07T16:08:29;12.40;99.20
45008;DHT22;30743;52.008;5.644;2022-12-07T16:10:54;12.20;99.50
45008;DHT22;30743;52.008;5.644;2022-12-07T16:13:20;12.00;99.80
45008;DHT22;30743;52.008;5.644;2022-12-07T16:15:46;12.00;99.90
45008;DHT22;30743;52.008;5.644;2022-12-07T16:18:11;12.00;99.90
45008;DHT22;30743;52.008;5.644;2022-12-07T16:20:37;12.00;99.90
45008;DHT22;30743;52.008;5.644;2022-12-07T16:23:03;11.90;99.60
45008;DHT22;30743;52.008;5.644;2022-12-07T16:25:28;11.90;99.90
45008;DHT22;30743;52.008;5.644;2022-12-07T16:27:54;12.00;99.90
45008;DHT22;30743;52.008;5.644;2022-12-07T16:30:20;12.00;99.80
45008;DHT22;30743;52.008;5.644;2022-12-07T16:32:45;11.90;99.70
45008;DHT22;30743;52.008;5.644;2022-12-07T16:35:11;11.90;99.70
45008;DHT22;30743;52.008;5.644;2022-12-07T16:37:37;12.00;99.70
45008;DHT22;30743;52.008;5.644;2022-12-07T16:40:03;11.90;99.70
45008;DHT22;30743;52.008;5.644;2022-12-07T16:42:38;11.80;99.70
45008;DHT22;30743;52.008;5.644;2022-12-07T16:45:04;11.80;99.90
45008;DHT22;30743;52.008;5.644;2022-12-07T16:47:29;11.60;99.90
45008;DHT22;30743;52.008;5.644;2022-12-07T16:49:55;11.40;99.90
45008;DHT22;30743;52.008;5.644;2022-12-07T16:52:21;11.50;99.90
45008;DHT22;30743;52.008;5.644;2022-12-07T16:54:47;11.40;99.90
45008;DHT22;30743;52.008;5.644;2022-12-07T16:57:13;11.50;99.90
45008;DHT22;30743;52.008;5.644;2022-12-07T16:59:39;11.50;99.90
45008;DHT22;30743;52.008;5.644;2022-12-07T17:02:04;11.60;99.90
45008;DHT22;30743;52.008;5.644;2022-12-07T17:04:32;11.40;99.90
45008;DHT22;30743;52.008;5.644;2022-12-07T17:06:58;11.30;99.90
45008;DHT22;30743;52.008;5.644;2022-12-07T17:09:24;11.20;99.90
45008;DHT22;30743;52.008;5.644;2022-12-07T17:11:49;11.30;99.90
45008;DHT22;30743;52.008;5.644;2022-12-07T17:14:15;11.30;99.90
45008;DHT22;30743;52.008;5.644;2022-12-07T17:16:59;11.30;99.90
45008;DHT22;30743;52.008;5.644;2022-12-07T17:19:25;11.20;99.90
45008;DHT22;30743;52.008;5.644;2022-12-07T17:21:51;11.20;99.90
45008;DHT22;30743;52.008;5.644;2022-12-07T17:24:17;11.20;99.90
45008;DHT22;30743;52.008;5.644;2022-12-07T17:26:44;11.00;99.90
45008;DHT22;30743;52.008;5.644;2022-12-07T17:29:11;11.10;99.90
45008;DHT22;30743;52.008;5.644;2022-12-07T17:31:37;11.10;99.90
45008;DHT22;30743;52.008;5.644;2022-12-07T17:34:03;11.10;99.90